This is the latest recevied weather packets stored in our database for station/object GW1596. If no packets are shown the sender has not sent any weather packets the latest 10 day(s).
| Time | Temp. | Humidity | Pressure | Rain* | Wind** | Luminosity | Snow |
|---|---|---|---|---|---|---|---|
| 1777318247 | 27.22° C | 34% | 1018.9 hPa | 0 mm | - | - | - |
| 1777314287 | 26.11° C | 40% | 1019.9 hPa | 0 mm | - | - | - |
| 1777313213 | 25.56° C | 36% | 1020.3 hPa | 0 mm | - | - | - |
| 1777307091 | 22.78° C | 43% | 1022 hPa | 0 mm | - | - | - |
| 1777305250 | 21.67° C | 46% | 1022 hPa | 0 mm | - | - | - |
| 1777303133 | 20.56° C | 51% | 1022 hPa | 0 mm | - | - | - |
| 1777302731 | 20° C | 52% | 1022 hPa | 0 mm | - | - | - |
| 1777301295 | 18.89° C | 59% | 1022.3 hPa | 0 mm | - | - | - |
| 1777300948 | 18.33° C | 55% | 1022.3 hPa | 0 mm | - | - | - |
| 1777300590 | 18.33° C | 59% | 1022.3 hPa | 0 mm | - | - | - |
| 1777297734 | 15° C | 69% | 1022.6 hPa | 0 mm | - | - | - |
| 1777297359 | 15° C | 68% | 1022.6 hPa | 0 mm | - | - | - |
| 1777296286 | 14.44° C | 74% | 1022.6 hPa | 0 mm | - | - | - |
| 1777295563 | 13.33° C | 74% | 1022.6 hPa | 0 mm | - | - | - |
| 1777291238 | 7.78° C | 99% | 1023.3 hPa | 0 mm | - | - | - |
| 1777289802 | 6.67° C | 99% | 1023.7 hPa | 0 mm | - | - | - |
| 1777285834 | 5.56° C | 98% | 1022.6 hPa | 0 mm | - | - | - |
| 1777283679 | 5.56° C | 99% | 1022.3 hPa | 0 mm | - | - | - |
| 1777278630 | 6.11° C | 98% | 1021.3 hPa | 0 mm | - | - | - |
| 1777276462 | 6.67° C | 98% | 1020.9 hPa | 0 mm | - | - | - |
| 1777274670 | 7.22° C | 98% | 1020.9 hPa | 0 mm | - | - | - |
| 1777274309 | 7.22° C | 98% | 1020.9 hPa | 0 mm | - | - | - |
| 1777273609 | 6.67° C | 98% | 1020.9 hPa | 0 mm | - | - | - |
| 1777271065 | 7.22° C | 98% | 1021.3 hPa | 0 mm | - | - | - |
| 1777270356 | 7.22° C | 98% | 1021.3 hPa | 0 mm | - | - | - |
* Rain since midnight (hover to see other rain measurements)
** Current wind speed in m/s (hover to see current wind gust speed)